Guadalupe — WDG4275 — position and weather

sailwx.info

Track history (hours):
 
Tides and Currents Weather Stations Pressure Air Temp Water Temp Dewpoint Dewpoint Depression Visibility Wind Speed Wind Dir Waves Ship Positions

Guadalupe

Owner: Kirby Inland Marine, LP, Houston, TX. More information available from US FCC via Universal Licensing System and Coast Guard Vessel Documentation Center.

Last reported at 2017-Nov-20 00:30 UTC. Time now 2017-Nov-21 15:50 UTC.
Position N 30°06' W 093°19'.

Length 118 m; draft 3 m.

Type: . MMSI: 367534840.

Date/timePositionNaut miles runAvg speedWind from/ knotsBaromVisibWave heightAir tempDewpointWater temp
2017-Nov-20 00:30N 30°06' W 093°19'0 0.0
2017-Nov-20 00:00N 30°06' W 093°19'0 0.0
2017-Nov-19 23:30N 30°06' W 093°19'0 0.0
2017-Nov-19 23:00N 30°06' W 093°19'0 0.0
2017-Nov-19 22:30N 30°06' W 093°19'0 0.0
2017-Nov-19 22:01N 30°06' W 093°19'0 0.0
2017-Nov-19 21:30N 30°06' W 093°19'0 0.0
2017-Nov-19 21:00N 30°06' W 093°19'0 0.1
2017-Nov-19 20:30N 30°06' W 093°19'0 0.0
2017-Nov-19 20:00N 30°06' W 093°19'0 0.0
2017-Nov-19 19:30N 30°06' W 093°19'0 0.0
2017-Nov-19 19:00N 30°06' W 093°19'0 0.0
2017-Nov-19 18:30N 30°06' W 093°19'0 0.0
2017-Nov-19 18:01N 30°06' W 093°19'0 0.0
2017-Nov-19 17:30N 30°06' W 093°19'0 0.0
2017-Nov-19 17:00N 30°06' W 093°19'0 0.0
2017-Nov-19 16:30N 30°06' W 093°19'0 0.0
2017-Nov-19 16:00N 30°06' W 093°19'0 0.0
2017-Nov-19 15:30N 30°06' W 093°19'0 0.0
2017-Nov-19 15:00N 30°06' W 093°19'0 0.0
2017-Nov-19 14:30N 30°06' W 093°19'0 0.0
2017-Nov-19 14:00N 30°06' W 093°19'0 0.0
2017-Nov-19 13:30N 30°06' W 093°19'0 0.0
2017-Nov-19 13:00N 30°06' W 093°19'0 0.3
2017-Nov-19 12:30N 30°06' W 093°19'1 1.1
2017-Nov-19 12:00N 30°06' W 093°19'1 2.0
2017-Nov-19 11:30N 30°05' W 093°20'2 3.4
2017-Nov-19 11:00N 30°04' W 093°21'2 3.1
2017-Nov-19 10:30N 30°04' W 093°23'2 4.9
2017-Nov-19 10:00N 30°04' W 093°26'2 4.5
2017-Nov-19 09:30N 30°04' W 093°29'80 4.2
2017-Nov-18 14:34N 29°29' W 094°52'1 7.5
2017-Nov-18 14:29N 29°30' W 094°52'4 7.4
2017-Nov-18 14:00N 29°33' W 094°54'3 7.0
2017-Nov-18 13:30N 29°35' W 094°56'3 6.9
2017-Nov-18 13:00N 29°39' W 094°58'3 6.8
2017-Nov-18 12:30N 29°42' W 094°60'3 5.6
2017-Nov-18 12:00N 29°44' W 095°02'1 2.4
2017-Nov-18 11:30N 29°44' W 095°03'1 1.9
2017-Nov-18 10:57N 29°45' W 095°04'1 3.2
2017-Nov-18 10:30N 29°46' W 095°05'0 1.0
2017-Nov-18 10:00N 29°46' W 095°06'2 0.5
2017-Nov-18 07:05N 29°47' W 095°05'1 4.4
2017-Nov-18 06:54N 29°46' W 095°05'0 0.1
2017-Nov-18 03:38N 29°46' W 095°05'0 3.5
2017-Nov-18 03:30N 29°45' W 095°06'2 2.2
2017-Nov-18 02:48N 29°44' W 095°07'2 5.0
2017-Nov-18 02:28N 29°44' W 095°09'4 4.0
2017-Nov-18 01:27N 29°44' W 095°13'0 0.3
2017-Nov-18 00:35N 29°44' W 095°14'0 0.6
2017-Nov-18 00:28N 29°44' W 095°14'0 0.0
2017-Nov-17 23:58N 29°44' W 095°14'0 0.0
2017-Nov-17 23:22N 29°44' W 095°14'0 0.0
2017-Nov-17 22:49N 29°44' W 095°14'0 0.0
2017-Nov-17 22:25N 29°44' W 095°14'0 0.0
2017-Nov-17 21:58N 29°44' W 095°14'0 0.0
2017-Nov-17 21:28N 29°44' W 095°14'0 0.0
2017-Nov-17 20:58N 29°44' W 095°14'0 0.0
2017-Nov-17 19:15N 29°44' W 095°14'0 0.0
2017-Nov-17 18:55N 29°44' W 095°14'0 0.0
2017-Nov-17 18:16N 29°44' W 095°14'0 0.0
2017-Nov-17 17:55N 29°44' W 095°14'0 0.0
2017-Nov-17 16:43N 29°44' W 095°14'0 0.0
2017-Nov-17 16:13N 29°44' W 095°14'0 0.0
2017-Nov-17 15:36N 29°44' W 095°14'0 0.0
2017-Nov-17 15:24N 29°44' W 095°14'0 0.0
2017-Nov-17 14:58N 29°44' W 095°14'0 0.0
2017-Nov-17 14:27N 29°44' W 095°14'0 0.0
2017-Nov-17 13:57N 29°44' W 095°14'0 0.0
2017-Nov-17 13:25N 29°44' W 095°14'0 0.0
2017-Nov-17 12:57N 29°44' W 095°14'0 0.0
2017-Nov-17 12:30N 29°44' W 095°14'0 0.0
2017-Nov-17 12:00N 29°44' W 095°14'0 0.0
2017-Nov-17 11:28N 29°44' W 095°14'0 0.0
2017-Nov-17 10:40N 29°44' W 095°14'0 0.0
2017-Nov-17 10:27N 29°44' W 095°14'0 0.0
2017-Nov-17 08:52N 29°44' W 095°14'0 0.0
2017-Nov-17 08:10N 29°44' W 095°14'0 0.0
2017-Nov-17 07:52N 29°44' W 095°14'0 0.0
2017-Nov-17 07:22N 29°44' W 095°14'0 0.0
2017-Nov-17 07:01N 29°44' W 095°14'0 0.0
2017-Nov-17 06:30N 29°44' W 095°14'0 0.0
2017-Nov-17 05:54N 29°44' W 095°14'0 0.0
2017-Nov-17 05:27N 29°44' W 095°14'0 0.0
2017-Nov-17 04:57N 29°44' W 095°14'0 0.0
2017-Nov-17 04:28N 29°44' W 095°14'0 0.0
2017-Nov-17 03:42N 29°44' W 095°14'0 0.0
2017-Nov-17 03:30N 29°44' W 095°14'0 0.0
2017-Nov-17 02:51N 29°44' W 095°14'0 0.0
2017-Nov-17 02:30N 29°44' W 095°14'0 0.0
2017-Nov-17 02:00N 29°44' W 095°14'0 0.0
2017-Nov-17 01:27N 29°44' W 095°14'0 0.0
2017-Nov-17 01:01N 29°44' W 095°14'0 0.0
2017-Nov-17 00:27N 29°44' W 095°14'0 0.0
2017-Nov-16 23:57N 29°44' W 095°14'0 0.0
2017-Nov-16 23:29N 29°44' W 095°14'0 0.0
2017-Nov-16 23:00N 29°44' W 095°14'0 0.0
2017-Nov-16 22:30N 29°44' W 095°14'0 0.0
2017-Nov-16 22:00N 29°44' W 095°14'0 0.0
2017-Nov-16 20:49N 29°44' W 095°14'0 0.0
2017-Nov-16 20:25N 29°44' W 095°14'0 0.0
2017-Nov-16 19:59N 29°44' W 095°14'0 0.0
2017-Nov-16 16:50N 29°43' W 095°13'0 0.1
2017-Nov-16 16:28N 29°44' W 095°13'2 4.3
2017-Nov-16 15:59N 29°45' W 095°11'2 4.7
2017-Nov-16 15:30N 29°44' W 095°09'2 4.2
2017-Nov-16 15:00N 29°45' W 095°06'1 2.4
2017-Nov-16 14:29N 29°46' W 095°06'0 0.1
2017-Nov-16 13:56N 29°46' W 095°06'0 0.2
2017-Nov-16 11:09N 29°46' W 095°05'0 0.1
2017-Nov-16 10:50N 29°46' W 095°05'1 0.8
2017-Nov-16 10:13N 29°45' W 095°06'2 5.1
2017-Nov-16 09:55N 29°44' W 095°07'1 0.7
2017-Nov-16 09:03N 29°44' W 095°08'0 0.0
2017-Nov-16 09:00N 29°44' W 095°08'0 0.0
2017-Nov-15 11:07N 29°44' W 095°08'0 1.2
2017-Nov-15 10:57N 29°44' W 095°08'1 2.0
2017-Nov-15 10:30N 29°44' W 095°07'1 2.2
2017-Nov-15 09:54N 29°45' W 095°06'0 0.1
2017-Nov-15 09:30N 29°45' W 095°06'0 0.0
2017-Nov-15 07:01N 29°45' W 095°06'0 0.0
2017-Nov-15 06:31N 29°45' W 095°06'0 0.0
2017-Nov-15 03:40N 29°45' W 095°06'0 0.0
2017-Nov-14 23:07N 29°45' W 095°06'0 0.0
2017-Nov-14 22:53N 29°45' W 095°06'1 0.4
2017-Nov-14 21:31N 29°46' W 095°05'0 4.5
2017-Nov-14 21:29N 29°46' W 095°05'0 0.5
2017-Nov-14 20:54N 29°45' W 095°06'0 0.0
2017-Nov-14 20:31N 29°45' W 095°06'0 0.0
2017-Nov-14 10:30N 29°45' W 095°06'0 0.0
2017-Nov-14 04:51N 29°45' W 095°06'0 0.0
2017-Nov-14 04:27N 29°45' W 095°06'0 0.0
2017-Nov-14 03:33N 29°45' W 095°06'0 0.0
2017-Nov-14 03:09N 29°45' W 095°06'0 0.0
2017-Nov-14 02:54N 29°45' W 095°06'0 0.1
2017-Nov-14 02:28N 29°45' W 095°06'2 4.3
2017-Nov-14 01:59N 29°44' W 095°07'3 5.4
2017-Nov-14 01:30N 29°45' W 095°10'3 5.3
2017-Nov-14 01:00N 29°43' W 095°13'1 1.2
2017-Nov-14 00:30N 29°44' W 095°14'0 0.1
2017-Nov-13 23:55N 29°44' W 095°14'0 0.0
2017-Nov-13 23:28N 29°44' W 095°14'0 0.0
2017-Nov-13 22:55N 29°44' W 095°14'0 0.0
2017-Nov-13 01:33N 29°43' W 095°13'0 0.0
2017-Nov-13 01:27N 29°43' W 095°13'0 0.0
2017-Nov-12 23:57N 29°43' W 095°13'0 0.0
2017-Nov-12 23:27N 29°43' W 095°13'0 0.0
2017-Nov-12 22:51N 29°43' W 095°13'0 0.0
2017-Nov-12 21:57N 29°43' W 095°13'0 0.0
2017-Nov-12 20:27N 29°43' W 095°13'0 0.0
2017-Nov-12 19:39N 29°43' W 095°13'0 0.0
2017-Nov-12 19:30N 29°43' W 095°13'2 3.8
2017-Nov-12 19:00N 29°45' W 095°12'3 6.1
2017-Nov-12 18:30N 29°44' W 095°08'3 0.1
2017-Nov-11 21:41N 29°46' W 095°05'0 0.0
2017-Nov-11 18:09N 29°46' W 095°05'0 0.0
2017-Nov-10 17:56N 29°46' W 095°06'0 0.1
2017-Nov-10 17:30N 29°46' W 095°06'0 0.0
2017-Nov-10 16:59N 29°46' W 095°06'  
Track history (hours):
 
Tides and Currents Weather Stations Pressure Air Temp Water Temp Dewpoint Dewpoint Depression Visibility Wind Speed Wind Dir Waves Ship Positions

Guadalupe

Owner: Kirby Inland Marine, LP, Houston, TX. More information available from US FCC via Universal Licensing System and Coast Guard Vessel Documentation Center.

Last reported at 2017-Nov-20 00:30 UTC. Time now 2017-Nov-21 15:50 UTC.
Position N 30°06' W 093°19'.

Length 118 m; draft 3 m.

Type: . MMSI: 367534840.

Date/timePositionNaut miles runAvg speedWind from/ knotsBaromVisibWave heightAir tempDewpointWater temp
2017-Nov-20 00:30N 30°06' W 093°19'0 0.0
2017-Nov-20 00:00N 30°06' W 093°19'0 0.0
2017-Nov-19 23:30N 30°06' W 093°19'0 0.0
2017-Nov-19 23:00N 30°06' W 093°19'0 0.0
2017-Nov-19 22:30N 30°06' W 093°19'0 0.0
2017-Nov-19 22:01N 30°06' W 093°19'0 0.0
2017-Nov-19 21:30N 30°06' W 093°19'0 0.0
2017-Nov-19 21:00N 30°06' W 093°19'0 0.1
2017-Nov-19 20:30N 30°06' W 093°19'0 0.0
2017-Nov-19 20:00N 30°06' W 093°19'0 0.0
2017-Nov-19 19:30N 30°06' W 093°19'0 0.0
2017-Nov-19 19:00N 30°06' W 093°19'0 0.0
2017-Nov-19 18:30N 30°06' W 093°19'0 0.0
2017-Nov-19 18:01N 30°06' W 093°19'0 0.0
2017-Nov-19 17:30N 30°06' W 093°19'0 0.0
2017-Nov-19 17:00N 30°06' W 093°19'0 0.0
2017-Nov-19 16:30N 30°06' W 093°19'0 0.0
2017-Nov-19 16:00N 30°06' W 093°19'0 0.0
2017-Nov-19 15:30N 30°06' W 093°19'0 0.0
2017-Nov-19 15:00N 30°06' W 093°19'0 0.0
2017-Nov-19 14:30N 30°06' W 093°19'0 0.0
2017-Nov-19 14:00N 30°06' W 093°19'0 0.0
2017-Nov-19 13:30N 30°06' W 093°19'0 0.0
2017-Nov-19 13:00N 30°06' W 093°19'0 0.3
2017-Nov-19 12:30N 30°06' W 093°19'1 1.1
2017-Nov-19 12:00N 30°06' W 093°19'1 2.0
2017-Nov-19 11:30N 30°05' W 093°20'2 3.4
2017-Nov-19 11:00N 30°04' W 093°21'2 3.1
2017-Nov-19 10:30N 30°04' W 093°23'2 4.9
2017-Nov-19 10:00N 30°04' W 093°26'2 4.5
2017-Nov-19 09:30N 30°04' W 093°29'80 4.2
2017-Nov-18 14:34N 29°29' W 094°52'1 7.5
2017-Nov-18 14:29N 29°30' W 094°52'4 7.4
2017-Nov-18 14:00N 29°33' W 094°54'3 7.0
2017-Nov-18 13:30N 29°35' W 094°56'3 6.9
2017-Nov-18 13:00N 29°39' W 094°58'3 6.8
2017-Nov-18 12:30N 29°42' W 094°60'3 5.6
2017-Nov-18 12:00N 29°44' W 095°02'1 2.4
2017-Nov-18 11:30N 29°44' W 095°03'1 1.9
2017-Nov-18 10:57N 29°45' W 095°04'1 3.2
2017-Nov-18 10:30N 29°46' W 095°05'0 1.0
2017-Nov-18 10:00N 29°46' W 095°06'2 0.5
2017-Nov-18 07:05N 29°47' W 095°05'1 4.4
2017-Nov-18 06:54N 29°46' W 095°05'0 0.1
2017-Nov-18 03:38N 29°46' W 095°05'0 3.5
2017-Nov-18 03:30N 29°45' W 095°06'2 2.2
2017-Nov-18 02:48N 29°44' W 095°07'2 5.0
2017-Nov-18 02:28N 29°44' W 095°09'4 4.0
2017-Nov-18 01:27N 29°44' W 095°13'0 0.3
2017-Nov-18 00:35N 29°44' W 095°14'0 0.6
2017-Nov-18 00:28N 29°44' W 095°14'0 0.0
2017-Nov-17 23:58N 29°44' W 095°14'0 0.0
2017-Nov-17 23:22N 29°44' W 095°14'0 0.0
2017-Nov-17 22:49N 29°44' W 095°14'0 0.0
2017-Nov-17 22:25N 29°44' W 095°14'0 0.0
2017-Nov-17 21:58N 29°44' W 095°14'0 0.0
2017-Nov-17 21:28N 29°44' W 095°14'0 0.0
2017-Nov-17 20:58N 29°44' W 095°14'0 0.0
2017-Nov-17 19:15N 29°44' W 095°14'0 0.0
2017-Nov-17 18:55N 29°44' W 095°14'0 0.0
2017-Nov-17 18:16N 29°44' W 095°14'0 0.0
2017-Nov-17 17:55N 29°44' W 095°14'0 0.0
2017-Nov-17 16:43N 29°44' W 095°14'0 0.0
2017-Nov-17 16:13N 29°44' W 095°14'0 0.0
2017-Nov-17 15:36N 29°44' W 095°14'0 0.0
2017-Nov-17 15:24N 29°44' W 095°14'0 0.0
2017-Nov-17 14:58N 29°44' W 095°14'0 0.0
2017-Nov-17 14:27N 29°44' W 095°14'0 0.0
2017-Nov-17 13:57N 29°44' W 095°14'0 0.0
2017-Nov-17 13:25N 29°44' W 095°14'0 0.0
2017-Nov-17 12:57N 29°44' W 095°14'0 0.0
2017-Nov-17 12:30N 29°44' W 095°14'0 0.0
2017-Nov-17 12:00N 29°44' W 095°14'0 0.0
2017-Nov-17 11:28N 29°44' W 095°14'0 0.0
2017-Nov-17 10:40N 29°44' W 095°14'0 0.0
2017-Nov-17 10:27N 29°44' W 095°14'0 0.0
2017-Nov-17 08:52N 29°44' W 095°14'0 0.0
2017-Nov-17 08:10N 29°44' W 095°14'0 0.0
2017-Nov-17 07:52N 29°44' W 095°14'0 0.0
2017-Nov-17 07:22N 29°44' W 095°14'0 0.0
2017-Nov-17 07:01N 29°44' W 095°14'0 0.0
2017-Nov-17 06:30N 29°44' W 095°14'0 0.0
2017-Nov-17 05:54N 29°44' W 095°14'0 0.0
2017-Nov-17 05:27N 29°44' W 095°14'0 0.0
2017-Nov-17 04:57N 29°44' W 095°14'0 0.0
2017-Nov-17 04:28N 29°44' W 095°14'0 0.0
2017-Nov-17 03:42N 29°44' W 095°14'0 0.0
2017-Nov-17 03:30N 29°44' W 095°14'0 0.0
2017-Nov-17 02:51N 29°44' W 095°14'0 0.0
2017-Nov-17 02:30N 29°44' W 095°14'0 0.0
2017-Nov-17 02:00N 29°44' W 095°14'0 0.0
2017-Nov-17 01:27N 29°44' W 095°14'0 0.0
2017-Nov-17 01:01N 29°44' W 095°14'0 0.0
2017-Nov-17 00:27N 29°44' W 095°14'0 0.0
2017-Nov-16 23:57N 29°44' W 095°14'0 0.0
2017-Nov-16 23:29N 29°44' W 095°14'0 0.0
2017-Nov-16 23:00N 29°44' W 095°14'0 0.0
2017-Nov-16 22:30N 29°44' W 095°14'0 0.0
2017-Nov-16 22:00N 29°44' W 095°14'0 0.0
2017-Nov-16 20:49N 29°44' W 095°14'0 0.0
2017-Nov-16 20:25N 29°44' W 095°14'0 0.0
2017-Nov-16 19:59N 29°44' W 095°14'0 0.0
2017-Nov-16 16:50N 29°43' W 095°13'0 0.1
2017-Nov-16 16:28N 29°44' W 095°13'2 4.3
2017-Nov-16 15:59N 29°45' W 095°11'2 4.7
2017-Nov-16 15:30N 29°44' W 095°09'2 4.2
2017-Nov-16 15:00N 29°45' W 095°06'1 2.4
2017-Nov-16 14:29N 29°46' W 095°06'0 0.1
2017-Nov-16 13:56N 29°46' W 095°06'0 0.2
2017-Nov-16 11:09N 29°46' W 095°05'0 0.1
2017-Nov-16 10:50N 29°46' W 095°05'1 0.8
2017-Nov-16 10:13N 29°45' W 095°06'2 5.1
2017-Nov-16 09:55N 29°44' W 095°07'1 0.7
2017-Nov-16 09:03N 29°44' W 095°08'0 0.0
2017-Nov-16 09:00N 29°44' W 095°08'0 0.0
2017-Nov-15 11:07N 29°44' W 095°08'0 1.2
2017-Nov-15 10:57N 29°44' W 095°08'1 2.0
2017-Nov-15 10:30N 29°44' W 095°07'1 2.2
2017-Nov-15 09:54N 29°45' W 095°06'0 0.1
2017-Nov-15 09:30N 29°45' W 095°06'0 0.0
2017-Nov-15 07:01N 29°45' W 095°06'0 0.0
2017-Nov-15 06:31N 29°45' W 095°06'0 0.0
2017-Nov-15 03:40N 29°45' W 095°06'0 0.0
2017-Nov-14 23:07N 29°45' W 095°06'0 0.0
2017-Nov-14 22:53N 29°45' W 095°06'1 0.4
2017-Nov-14 21:31N 29°46' W 095°05'0 4.5
2017-Nov-14 21:29N 29°46' W 095°05'0 0.5
2017-Nov-14 20:54N 29°45' W 095°06'0 0.0
2017-Nov-14 20:31N 29°45' W 095°06'0 0.0
2017-Nov-14 10:30N 29°45' W 095°06'0 0.0
2017-Nov-14 04:51N 29°45' W 095°06'0 0.0
2017-Nov-14 04:27N 29°45' W 095°06'0 0.0
2017-Nov-14 03:33N 29°45' W 095°06'0 0.0
2017-Nov-14 03:09N 29°45' W 095°06'0 0.0
2017-Nov-14 02:54N 29°45' W 095°06'0 0.1
2017-Nov-14 02:28N 29°45' W 095°06'2 4.3
2017-Nov-14 01:59N 29°44' W 095°07'3 5.4
2017-Nov-14 01:30N 29°45' W 095°10'3 5.3
2017-Nov-14 01:00N 29°43' W 095°13'1 1.2
2017-Nov-14 00:30N 29°44' W 095°14'0 0.1
2017-Nov-13 23:55N 29°44' W 095°14'0 0.0
2017-Nov-13 23:28N 29°44' W 095°14'0 0.0
2017-Nov-13 22:55N 29°44' W 095°14'0 0.0
2017-Nov-13 01:33N 29°43' W 095°13'0 0.0
2017-Nov-13 01:27N 29°43' W 095°13'0 0.0
2017-Nov-12 23:57N 29°43' W 095°13'0 0.0
2017-Nov-12 23:27N 29°43' W 095°13'0 0.0
2017-Nov-12 22:51N 29°43' W 095°13'0 0.0
2017-Nov-12 21:57N 29°43' W 095°13'0 0.0
2017-Nov-12 20:27N 29°43' W 095°13'0 0.0
2017-Nov-12 19:39N 29°43' W 095°13'0 0.0
2017-Nov-12 19:30N 29°43' W 095°13'2 3.8
2017-Nov-12 19:00N 29°45' W 095°12'3 6.1
2017-Nov-12 18:30N 29°44' W 095°08'3 0.1
2017-Nov-11 21:41N 29°46' W 095°05'0 0.0
2017-Nov-11 18:09N 29°46' W 095°05'0 0.0
2017-Nov-10 17:56N 29°46' W 095°06'0 0.1
2017-Nov-10 17:30N 29°46' W 095°06'0 0.0
2017-Nov-10 16:59N 29°46' W 095°06'  

Dump ship's entire track history